createdAt,value
2023-02-19T00:00:17.510Z,77.91
2023-02-19T00:03:08.658Z,78.07
2023-02-19T00:05:39.371Z,78.05
2023-02-19T00:08:10.027Z,77.96
2023-02-19T00:10:40.744Z,77.93
2023-02-19T00:13:11.342Z,77.89
2023-02-19T00:15:42.061Z,78.06
2023-02-19T00:18:12.698Z,78.02
2023-02-19T00:20:43.417Z,77.96
2023-02-19T00:23:14.170Z,78.00
2023-02-19T00:25:44.947Z,78.00
2023-02-19T00:28:15.826Z,78.08
2023-02-19T00:30:46.634Z,77.96
2023-02-19T00:33:17.291Z,78.13
2023-02-19T00:35:47.972Z,78.09
2023-02-19T00:38:18.609Z,77.98
2023-02-19T00:40:49.335Z,78.13
2023-02-19T00:43:19.951Z,78.18
2023-02-19T00:45:50.604Z,78.23
2023-02-19T00:48:21.251Z,78.19
2023-02-19T00:50:51.958Z,78.20
2023-02-19T00:53:22.648Z,78.18
2023-02-19T00:55:53.358Z,78.09
2023-02-19T00:58:24.078Z,78.11
2023-02-19T01:00:55.150Z,78.31
2023-02-19T01:03:24.257Z,78.11
2023-02-19T01:05:54.989Z,78.18
2023-02-19T01:08:25.711Z,78.07
2023-02-19T01:10:56.452Z,78.03
2023-02-19T01:13:28.056Z,78.10
2023-02-19T01:16:06.701Z,78.03
2023-02-19T01:18:37.406Z,77.99
2023-02-19T01:21:11.628Z,77.93
2023-02-19T01:23:42.976Z,77.88
2023-02-19T01:26:17.087Z,77.91
2023-02-19T01:28:48.489Z,77.83
2023-02-19T01:31:21.064Z,77.93
2023-02-19T01:33:53.503Z,77.98
2023-02-19T01:36:24.920Z,78.03
2023-02-19T01:38:55.603Z,78.01
2023-02-19T01:41:27.036Z,78.02
2023-02-19T01:44:04.311Z,78.01
2023-02-19T01:46:36.444Z,77.99
2023-02-19T01:49:10.710Z,77.78
2023-02-19T01:51:45.259Z,77.84
2023-02-19T01:54:19.978Z,77.90
2023-02-19T01:56:51.282Z,77.99
2023-02-19T01:59:22.229Z,78.07
2023-02-19T02:01:53.064Z,78.07
2023-02-19T02:04:23.819Z,77.88
2023-02-19T02:06:56.435Z,78.10
2023-02-19T02:09:29.436Z,77.94
2023-02-19T02:12:00.115Z,77.97
2023-02-19T02:14:38.035Z,78.16
2023-02-19T02:17:20.620Z,78.03
2023-02-19T02:20:07.733Z,78.07
2023-02-19T02:22:42.675Z,78.30
2023-02-19T02:25:32.100Z,78.33
2023-02-19T02:28:21.764Z,78.16
2023-02-19T02:30:56.485Z,78.04
2023-02-19T02:33:32.835Z,78.04
2023-02-19T02:36:10.835Z,78.09
2023-02-19T02:38:45.166Z,77.94
2023-02-19T02:41:17.031Z,78.09
2023-02-19T02:43:47.861Z,78.10
2023-02-19T02:46:23.283Z,78.10
2023-02-19T02:48:56.472Z,78.00
2023-02-19T02:51:30.900Z,78.11
2023-02-19T02:54:05.416Z,78.12
2023-02-19T02:56:36.604Z,78.09
2023-02-19T02:59:09.955Z,78.19
2023-02-19T03:01:46.677Z,78.20
2023-02-19T03:04:24.595Z,78.21
2023-02-19T03:06:57.630Z,78.27
2023-02-19T03:09:32.772Z,78.31
2023-02-19T03:12:05.668Z,78.21
2023-02-19T03:14:42.661Z,78.19
2023-02-19T03:17:22.003Z,78.18
2023-02-19T03:19:56.072Z,78.18
2023-02-19T03:22:29.835Z,78.26
2023-02-19T03:25:04.098Z,78.13
2023-02-19T03:27:37.984Z,78.06
2023-02-19T03:30:16.816Z,78.10
2023-02-19T03:32:52.289Z,78.01
2023-02-19T03:35:27.441Z,78.18
2023-02-19T03:38:04.772Z,78.26
2023-02-19T03:40:41.941Z,78.17
2023-02-19T03:43:19.604Z,78.27
2023-02-19T03:45:58.558Z,78.33
2023-02-19T03:48:34.135Z,78.14
2023-02-19T03:51:18.110Z,78.21
2023-02-19T03:54:00.941Z,78.29
2023-02-19T03:56:37.228Z,78.30
2023-02-19T03:59:14.374Z,78.18
2023-02-19T04:01:48.960Z,78.27
2023-02-19T04:04:25.202Z,78.30
2023-02-19T04:06:57.473Z,78.11
2023-02-19T04:09:33.553Z,77.92
2023-02-19T04:12:05.113Z,77.83
2023-02-19T04:14:39.844Z,77.98
2023-02-19T04:17:18.205Z,78.08
2023-02-19T04:19:51.432Z,78.02
2023-02-19T04:22:24.538Z,78.09
2023-02-19T04:24:55.879Z,78.15
2023-02-19T04:27:26.542Z,78.15
2023-02-19T04:29:57.173Z,78.13
2023-02-19T04:32:28.001Z,78.05
2023-02-19T04:34:58.612Z,77.89
2023-02-19T04:37:29.316Z,77.92
2023-02-19T04:40:00.167Z,78.08
2023-02-19T04:42:31.354Z,78.27
2023-02-19T04:45:02.388Z,78.28
2023-02-19T04:47:34.738Z,78.28
2023-02-19T04:50:06.314Z,78.36
2023-02-19T04:52:44.505Z,78.19
2023-02-19T04:55:15.213Z,78.12
2023-02-19T04:57:45.868Z,78.15
2023-02-19T05:00:18.182Z,78.17
2023-02-19T05:02:48.879Z,78.19
2023-02-19T05:05:19.611Z,78.21
2023-02-19T05:07:50.761Z,78.29
2023-02-19T05:10:21.414Z,78.26
2023-02-19T05:12:52.091Z,78.13
2023-02-19T05:15:22.707Z,78.39
2023-02-19T05:17:53.330Z,78.16
2023-02-19T05:20:23.983Z,78.14
2023-02-19T05:22:54.746Z,78.03
2023-02-19T05:25:25.548Z,78.03
2023-02-19T05:27:56.185Z,78.12
2023-02-19T05:30:26.888Z,77.98
2023-02-19T05:32:57.897Z,77.92
2023-02-19T05:35:28.522Z,78.09
2023-02-19T05:37:59.156Z,78.00
2023-02-19T05:40:29.767Z,78.13
2023-02-19T05:43:00.502Z,78.14
2023-02-19T05:45:31.571Z,78.14
2023-02-19T05:48:02.963Z,78.08
2023-02-19T05:50:35.164Z,78.12
2023-02-19T05:53:06.713Z,78.04
2023-02-19T05:55:37.539Z,78.00
2023-02-19T05:58:08.282Z,77.94
2023-02-19T06:00:38.932Z,78.15
2023-02-19T06:03:09.602Z,78.00
2023-02-19T06:05:40.259Z,78.16
2023-02-19T06:08:12.724Z,78.06
2023-02-19T06:10:43.698Z,77.92
2023-02-19T06:13:16.842Z,77.93
2023-02-19T06:15:48.409Z,77.93
2023-02-19T06:18:19.081Z,78.00
2023-02-19T06:20:49.849Z,78.03
2023-02-19T06:23:20.571Z,77.95
2023-02-19T06:25:51.234Z,77.89
2023-02-19T06:28:21.970Z,77.98
2023-02-19T06:30:52.610Z,77.73
2023-02-19T06:33:23.268Z,77.88
2023-02-19T06:35:53.920Z,77.84
2023-02-19T06:38:24.930Z,77.86
2023-02-19T06:40:55.510Z,77.82
2023-02-19T06:43:26.276Z,77.69
2023-02-19T06:45:59.909Z,77.60
2023-02-19T06:48:31.302Z,77.51
2023-02-19T06:51:02.041Z,77.52
2023-02-19T06:53:33.043Z,77.43
2023-02-19T06:56:06.447Z,77.21
2023-02-19T06:58:37.529Z,77.04
2023-02-19T07:01:06.722Z,77.12
2023-02-19T07:03:37.461Z,77.13
2023-02-19T07:06:10.363Z,77.16
2023-02-19T07:08:41.265Z,76.88
2023-02-19T07:11:12.094Z,76.65
2023-02-19T07:13:42.895Z,76.88
2023-02-19T07:16:14.584Z,76.63
2023-02-19T07:18:45.229Z,76.54
2023-02-19T07:21:17.962Z,76.23
2023-02-19T07:23:48.667Z,75.78
2023-02-19T07:26:21.001Z,75.52
2023-02-19T07:28:52.786Z,75.97
2023-02-19T07:31:25.016Z,75.92
2023-02-19T07:33:56.399Z,75.77
2023-02-19T07:36:27.042Z,75.85
2023-02-19T07:38:58.627Z,75.96
2023-02-19T07:41:29.273Z,76.18
2023-02-19T07:43:59.983Z,75.77
2023-02-19T07:46:30.604Z,75.67
2023-02-19T07:49:01.440Z,75.69
2023-02-19T07:51:32.664Z,75.91
2023-02-19T07:54:03.645Z,75.73
2023-02-19T07:56:34.266Z,75.07
2023-02-19T07:59:04.983Z,74.50
2023-02-19T08:01:35.679Z,74.70
2023-02-19T08:04:06.743Z,75.10
2023-02-19T08:06:35.834Z,74.46
2023-02-19T08:09:06.891Z,74.22
2023-02-19T08:11:35.930Z,73.95
2023-02-19T08:14:06.643Z,73.50
2023-02-19T08:16:43.292Z,74.05
2023-02-19T08:19:14.226Z,73.08
2023-02-19T08:21:45.024Z,72.88
2023-02-19T08:24:15.680Z,73.13
2023-02-19T08:26:46.497Z,73.38
2023-02-19T08:29:17.240Z,72.98
2023-02-19T08:31:48.184Z,71.87
2023-02-19T08:34:18.924Z,71.71
2023-02-19T08:36:49.698Z,72.12
2023-02-19T08:39:21.243Z,72.63
2023-02-19T08:41:52.040Z,73.19
2023-02-19T08:44:22.956Z,73.12
2023-02-19T08:46:53.586Z,73.31
2023-02-19T08:49:27.729Z,72.71
2023-02-19T08:51:58.441Z,72.57
2023-02-19T08:54:29.096Z,72.36
2023-02-19T08:56:59.865Z,71.72
2023-02-19T08:59:31.617Z,71.08
2023-02-19T09:02:02.252Z,71.29
2023-02-19T09:04:33.262Z,70.79
2023-02-19T09:07:04.752Z,71.85
2023-02-19T09:09:36.807Z,72.00
2023-02-19T09:12:11.153Z,71.27
2023-02-19T09:14:41.893Z,70.97
2023-02-19T09:17:12.797Z,70.78
2023-02-19T09:19:43.533Z,70.54
2023-02-19T09:22:14.233Z,70.14
2023-02-19T09:24:45.930Z,69.52
2023-02-19T09:27:19.444Z,68.31
2023-02-19T09:29:50.169Z,68.86
2023-02-19T09:32:20.874Z,69.15
2023-02-19T09:34:51.559Z,67.82
2023-02-19T09:37:26.849Z,68.61
2023-02-19T09:39:57.535Z,68.96
2023-02-19T09:42:32.266Z,69.06
2023-02-19T09:45:04.895Z,68.78
2023-02-19T09:47:35.972Z,68.12
2023-02-19T09:53:14.415Z,67.35
2023-02-19T09:55:45.830Z,68.30
2023-02-19T09:58:25.918Z,67.77
2023-02-19T10:00:58.849Z,66.45
2023-02-19T10:03:32.409Z,66.24
2023-02-19T10:06:10.884Z,67.34
2023-02-19T10:08:45.252Z,66.99
2023-02-19T10:11:16.401Z,66.99
2023-02-19T10:13:50.906Z,67.42
2023-02-19T10:16:25.419Z,66.46
2023-02-19T10:18:56.262Z,66.66
2023-02-19T10:21:27.910Z,65.24
2023-02-19T10:24:02.561Z,63.55
2023-02-19T10:26:33.606Z,64.82
2023-02-19T10:29:03.066Z,63.60
2023-02-19T10:31:34.903Z,62.58
2023-02-19T10:34:16.751Z,62.23
2023-02-19T10:36:49.930Z,63.41
2023-02-19T10:39:42.314Z,64.07
2023-02-19T10:42:23.159Z,62.75
2023-02-19T10:44:56.529Z,62.23
2023-02-19T10:47:30.498Z,62.45
2023-02-19T10:50:04.368Z,60.66
2023-02-19T10:52:36.346Z,61.63
2023-02-19T10:55:26.248Z,61.69
2023-02-19T10:57:57.533Z,60.71
2023-02-19T11:00:30.541Z,62.24
2023-02-19T11:03:22.394Z,61.00
2023-02-19T11:06:05.144Z,61.20
2023-02-19T11:08:47.441Z,60.37
2023-02-19T11:11:43.902Z,60.95
2023-02-19T11:14:18.943Z,60.49
2023-02-19T11:16:51.603Z,62.04
2023-02-19T11:19:34.301Z,60.95
2023-02-19T11:22:21.042Z,59.75
2023-02-19T11:24:56.675Z,59.46
2023-02-19T11:27:28.559Z,58.67
2023-02-19T11:30:39.160Z,57.83
2023-02-19T11:33:27.904Z,58.40
2023-02-19T11:36:30.311Z,58.48
2023-02-19T11:39:19.516Z,58.56
2023-02-19T11:42:17.104Z,56.36
2023-02-19T11:44:56.955Z,55.94
2023-02-19T11:47:58.192Z,55.66
2023-02-19T11:50:38.584Z,55.29
2023-02-19T11:53:21.407Z,54.71
2023-02-19T11:56:12.342Z,56.88
2023-02-19T11:59:00.946Z,56.74
2023-02-19T12:01:44.288Z,55.17
2023-02-19T12:04:56.445Z,55.62
2023-02-19T12:07:49.070Z,53.75
2023-02-19T12:10:33.271Z,53.10
2023-02-19T12:13:14.489Z,52.93
2023-02-19T12:18:59.002Z,53.71
2023-02-19T12:21:43.921Z,52.66
2023-02-19T12:24:38.353Z,52.94
2023-02-19T12:27:24.658Z,51.72
2023-02-19T12:30:20.115Z,50.58
2023-02-19T12:33:06.678Z,53.01
2023-02-19T12:35:58.653Z,52.18
2023-02-19T12:38:35.203Z,51.81
2023-02-19T12:41:27.357Z,51.45
2023-02-19T12:44:01.566Z,52.62
2023-02-19T12:46:36.472Z,53.31
2023-02-19T12:49:14.223Z,51.29
2023-02-19T12:51:48.682Z,49.73
2023-02-19T12:54:25.035Z,49.92
2023-02-19T12:57:00.630Z,49.91
2023-02-19T12:59:38.742Z,48.31
2023-02-19T13:02:16.293Z,45.51
2023-02-19T13:04:55.199Z,48.72
2023-02-19T13:07:30.869Z,48.18
2023-02-19T13:10:32.833Z,47.04
2023-02-19T13:13:07.223Z,46.67
2023-02-19T13:15:41.726Z,46.80
2023-02-19T13:18:18.329Z,47.39
2023-02-19T13:20:50.955Z,45.57
2023-02-19T13:23:29.018Z,47.96
2023-02-19T13:26:22.434Z,47.34
2023-02-19T13:29:05.193Z,47.41
2023-02-19T13:31:55.187Z,46.14
2023-02-19T13:34:40.231Z,45.56
2023-02-19T13:37:11.938Z,46.38
2023-02-19T13:39:49.463Z,48.06
2023-02-19T13:42:32.762Z,44.86
2023-02-19T13:45:05.143Z,43.70
2023-02-19T13:47:50.373Z,42.47
2023-02-19T13:50:23.793Z,43.18
2023-02-19T13:52:54.885Z,42.26
2023-02-19T13:55:41.639Z,43.89
2023-02-19T13:58:36.571Z,44.71
2023-02-19T14:01:07.899Z,44.56
2023-02-19T14:04:07.022Z,45.73
2023-02-19T14:07:23.492Z,45.22
2023-02-19T14:09:54.780Z,44.83
2023-02-19T14:12:33.639Z,43.37
2023-02-19T14:15:50.512Z,44.80
2023-02-19T14:18:49.509Z,46.86
2023-02-19T14:21:27.922Z,46.83
2023-02-19T14:23:59.911Z,46.47
2023-02-19T14:26:34.054Z,47.35
2023-02-19T14:29:09.155Z,47.07
2023-02-19T14:31:50.349Z,47.42
2023-02-19T14:34:25.961Z,47.76
2023-02-19T14:37:01.160Z,48.02
2023-02-19T14:39:35.824Z,47.66
2023-02-19T14:42:42.155Z,47.24
2023-02-19T14:45:10.954Z,48.42
2023-02-19T14:47:46.503Z,48.92
2023-02-19T14:50:25.608Z,49.38
2023-02-19T14:52:59.858Z,50.31
2023-02-19T14:55:40.821Z,51.07
2023-02-19T14:58:30.271Z,50.68
2023-02-19T15:01:01.367Z,49.78
2023-02-19T15:03:34.456Z,50.30
2023-02-19T15:06:11.263Z,50.78
2023-02-19T15:08:47.139Z,50.51
2023-02-19T15:11:21.704Z,50.25
2023-02-19T15:13:58.601Z,50.14
2023-02-19T15:16:31.265Z,49.83
2023-02-19T15:19:06.147Z,50.10
2023-02-19T15:21:44.839Z,50.77
2023-02-19T15:24:17.659Z,50.87
2023-02-19T15:26:52.214Z,50.62
2023-02-19T15:29:27.250Z,50.45
2023-02-19T15:31:59.582Z,50.94
2023-02-19T15:34:32.634Z,50.54
2023-02-19T15:37:05.833Z,50.60
2023-02-19T15:39:39.496Z,51.13
2023-02-19T15:42:16.528Z,50.65
2023-02-19T15:44:52.232Z,51.05
2023-02-19T15:47:29.677Z,51.17
2023-02-19T15:50:05.525Z,51.35
2023-02-19T15:52:44.919Z,51.27
2023-02-19T15:55:28.537Z,51.21
2023-02-19T15:58:06.797Z,51.77
2023-02-19T16:00:44.896Z,52.01
2023-02-19T16:03:20.252Z,51.74
2023-02-19T16:06:01.826Z,52.08
2023-02-19T16:08:34.662Z,52.24
2023-02-19T16:11:19.036Z,52.44
2023-02-19T16:13:50.224Z,52.24
2023-02-19T16:16:24.146Z,52.55
2023-02-19T16:19:06.405Z,52.83
2023-02-19T16:21:37.266Z,52.84
2023-02-19T16:24:13.913Z,53.05
2023-02-19T16:26:46.019Z,53.06
2023-02-19T16:29:21.881Z,53.22
2023-02-19T16:31:55.201Z,53.31
2023-02-19T16:34:42.852Z,53.39
2023-02-19T16:37:37.482Z,53.37
2023-02-19T16:40:50.772Z,53.74
2023-02-19T16:43:30.295Z,54.06
2023-02-19T16:46:01.875Z,54.22
2023-02-19T16:48:37.449Z,54.27
2023-02-19T16:51:07.790Z,54.43
2023-02-19T16:53:38.656Z,54.58
2023-02-19T16:56:15.884Z,54.83
2023-02-19T16:58:46.744Z,54.89
2023-02-19T17:01:19.095Z,55.12
2023-02-19T17:03:51.274Z,55.22
2023-02-19T17:06:21.979Z,55.27
2023-02-19T17:08:53.692Z,55.51
2023-02-19T17:11:58.005Z,55.67
2023-02-19T17:14:31.415Z,55.80
2023-02-19T17:17:03.655Z,55.74
2023-02-19T17:19:36.286Z,56.01
2023-02-19T17:22:14.379Z,56.01
2023-02-19T17:24:45.094Z,55.93
2023-02-19T17:27:15.946Z,56.08
2023-02-19T17:29:46.666Z,56.06
2023-02-19T17:32:17.465Z,56.31
2023-02-19T17:34:48.301Z,56.44
2023-02-19T17:37:18.934Z,56.54
2023-02-19T17:39:50.641Z,56.46
2023-02-19T17:42:21.833Z,56.59
2023-02-19T17:44:52.706Z,56.65
2023-02-19T17:47:23.719Z,56.70
2023-02-19T17:49:54.391Z,56.83
2023-02-19T17:52:26.678Z,56.60
2023-02-19T17:54:57.608Z,56.79
2023-02-19T17:57:52.630Z,56.85
2023-02-19T18:00:37.958Z,56.97
2023-02-19T18:03:13.009Z,57.24
2023-02-19T18:05:45.667Z,57.37
2023-02-19T18:08:16.326Z,57.38
2023-02-19T18:10:49.829Z,57.55
2023-02-19T18:13:20.628Z,57.64
2023-02-19T18:16:22.912Z,57.69
2023-02-19T18:18:43.869Z,57.96
2023-02-19T18:21:13.917Z,58.01
2023-02-19T18:23:46.535Z,58.05
2023-02-19T18:26:21.582Z,58.17
2023-02-19T18:28:57.861Z,58.20
2023-02-19T18:31:31.770Z,58.23
2023-02-19T18:34:02.580Z,58.52
2023-02-19T18:37:00.247Z,58.40
2023-02-19T18:39:46.014Z,58.51
2023-02-19T18:42:17.201Z,58.84
2023-02-19T18:44:50.757Z,58.65
2023-02-19T18:47:23.071Z,58.70
2023-02-19T18:49:55.507Z,58.60
2023-02-19T18:52:27.396Z,58.67
2023-02-19T18:54:58.395Z,58.65
2023-02-19T18:57:27.689Z,58.62
2023-02-19T19:00:23.967Z,58.73
2023-02-19T19:02:54.368Z,58.75
2023-02-19T19:05:33.272Z,58.75
2023-02-19T19:08:09.808Z,58.80
2023-02-19T19:10:40.402Z,58.89
2023-02-19T19:13:13.633Z,58.91
2023-02-19T19:15:49.244Z,58.97
2023-02-19T19:18:20.213Z,58.94
2023-02-19T19:20:50.841Z,58.80
2023-02-19T19:23:26.073Z,59.03
2023-02-19T19:25:58.962Z,59.00
2023-02-19T19:28:30.640Z,58.93
2023-02-19T19:31:01.413Z,59.02
2023-02-19T19:33:32.159Z,59.04
2023-02-19T19:36:21.910Z,59.00
2023-02-19T19:38:52.766Z,59.02
2023-02-19T19:41:27.671Z,59.11
2023-02-19T19:44:01.814Z,59.01
2023-02-19T19:46:32.871Z,59.13
2023-02-19T19:49:21.993Z,59.12
2023-02-19T19:51:53.960Z,59.18
2023-02-19T19:54:28.213Z,59.31
2023-02-19T19:56:59.166Z,59.31
2023-02-19T19:59:38.254Z,59.36
2023-02-19T20:02:18.270Z,59.46
2023-02-19T20:05:12.106Z,59.48
2023-02-19T20:07:39.136Z,59.65
2023-02-19T20:10:19.099Z,59.72
2023-02-19T20:12:51.337Z,59.77
2023-02-19T20:15:24.061Z,59.92
2023-02-19T20:17:54.991Z,59.96
2023-02-19T20:20:25.880Z,60.02
2023-02-19T20:22:56.566Z,60.13
2023-02-19T20:25:27.550Z,60.28
2023-02-19T20:27:58.410Z,60.29
2023-02-19T20:30:38.276Z,60.40
2023-02-19T20:33:09.032Z,60.63
2023-02-19T20:35:39.956Z,60.62
2023-02-19T20:38:14.108Z,60.66
2023-02-19T20:40:44.957Z,60.72
2023-02-19T20:43:16.270Z,60.84
2023-02-19T20:45:47.081Z,60.81
2023-02-19T20:48:18.600Z,61.07
2023-02-19T20:50:49.405Z,60.99
2023-02-19T20:53:20.155Z,61.18
2023-02-19T20:55:50.827Z,61.13
2023-02-19T20:58:21.586Z,61.17
2023-02-19T21:00:52.502Z,61.11
2023-02-19T21:03:23.611Z,61.25
2023-02-19T21:05:54.266Z,61.25
2023-02-19T21:08:24.893Z,61.36
2023-02-19T21:10:55.606Z,61.24
2023-02-19T21:13:27.283Z,61.24
2023-02-19T21:15:59.237Z,61.24
2023-02-19T21:18:32.162Z,61.33
2023-02-19T21:21:02.888Z,61.21
2023-02-19T21:23:33.618Z,61.27
2023-02-19T21:26:27.785Z,61.37
2023-02-19T21:28:58.384Z,61.37
2023-02-19T21:31:37.720Z,61.39
2023-02-19T21:34:19.441Z,61.61
2023-02-19T21:37:10.712Z,61.49
2023-02-19T21:39:39.854Z,61.46
2023-02-19T21:42:13.156Z,61.65
2023-02-19T21:44:43.785Z,61.74
2023-02-19T21:47:14.506Z,61.97
2023-02-19T21:49:45.222Z,61.88
2023-02-19T21:52:16.007Z,61.91
2023-02-19T21:54:46.857Z,62.07
2023-02-19T21:57:17.545Z,62.00
2023-02-19T21:59:48.155Z,62.19
2023-02-19T22:02:18.961Z,62.26
2023-02-19T22:04:55.701Z,62.38
2023-02-19T22:07:26.429Z,62.54
2023-02-19T22:09:57.044Z,62.51
2023-02-19T22:12:27.769Z,62.58
2023-02-19T22:15:01.601Z,62.46
2023-02-19T22:17:32.232Z,62.31
2023-02-19T22:20:03.201Z,62.47
2023-02-19T22:22:35.360Z,62.47
2023-02-19T22:25:06.675Z,62.63
2023-02-19T22:27:43.080Z,62.63
2023-02-19T22:30:15.894Z,62.83
2023-02-19T22:32:48.848Z,62.80
2023-02-19T22:35:19.819Z,62.77
2023-02-19T22:37:50.566Z,62.92
2023-02-19T22:40:21.322Z,62.95
2023-02-19T22:42:54.637Z,63.22
2023-02-19T22:45:25.254Z,62.93
2023-02-19T22:47:56.952Z,62.94
2023-02-19T22:50:27.530Z,62.87
2023-02-19T22:52:58.291Z,62.96
2023-02-19T22:55:28.921Z,62.94
2023-02-19T22:57:59.606Z,62.84
2023-02-19T23:00:30.288Z,62.94
2023-02-19T23:03:01.275Z,62.93
2023-02-19T23:05:30.506Z,62.87
2023-02-19T23:08:01.247Z,62.73
2023-02-19T23:10:31.915Z,62.75
2023-02-19T23:13:02.582Z,62.91
2023-02-19T23:15:33.721Z,63.02
2023-02-19T23:18:02.906Z,62.85
2023-02-19T23:20:33.637Z,63.20
2023-02-19T23:23:04.339Z,63.01
2023-02-19T23:25:35.145Z,63.04
2023-02-19T23:28:06.169Z,63.12
2023-02-19T23:30:35.334Z,63.22
2023-02-19T23:33:06.113Z,63.25
2023-02-19T23:35:36.749Z,63.31
2023-02-19T23:38:07.441Z,63.51
2023-02-19T23:40:38.401Z,63.47
2023-02-19T23:43:09.088Z,63.48
2023-02-19T23:45:39.685Z,63.70
2023-02-19T23:48:10.352Z,63.86
2023-02-19T23:50:41.007Z,63.75
2023-02-19T23:53:11.746Z,63.96
2023-02-19T23:55:42.541Z,64.20
2023-02-19T23:58:13.853Z,64.29
